Terminal Aerodrome Forecast
Issued by NWS Corpus Christi, TX

Current Version | Previous Version | Text Only | Print | Product List | Glossary On
Versions: 1 2 3 4 5 6 7 8 9 10 11 12 13
926
FTUS44 KCRP 241121
TAFCRP
TAF
KCRP 241121Z 2412/2512 16005KT P6SM SCT018 SCT025
      TEMPO 2412/2416 5SM -SHRA BKN018 BKN025
     FM241600 14011KT P6SM BKN025 BKN035
      TEMPO 2416/2420 5SM TSRA OVC020CB
     FM242000 11014G20KT P6SM SCT035 BKN250
     FM250200 12010KT P6SM SCT020 BKN250
     FM250800 12007KT P6SM VCSH BKN015 BKN150=

USA.gov is the U.S. government's official web portal to all federal, state and local government web resources and services.